createdAt,value
2022-09-12T00:01:21.453Z,100106.97
2022-09-12T00:03:55.383Z,100116.44
2022-09-12T00:06:27.810Z,100116.88
2022-09-12T00:08:57.022Z,100098.75
2022-09-12T00:11:24.349Z,100108.19
2022-09-12T00:13:51.945Z,100113.84
2022-09-12T00:16:23.637Z,100108.75
2022-09-12T00:18:51.464Z,100112.81
2022-09-12T00:21:19.115Z,100106.75
2022-09-12T00:23:46.725Z,100112.97
2022-09-12T00:26:14.929Z,100113.25
2022-09-12T00:28:42.196Z,100112.13
2022-09-12T00:31:13.225Z,100108.81
2022-09-12T00:33:41.342Z,100110.50
2022-09-12T00:36:15.415Z,100112.47
2022-09-12T00:38:44.555Z,100115.44
2022-09-12T00:41:17.642Z,100111.56
2022-09-12T00:43:49.830Z,100115.84
2022-09-12T00:46:36.324Z,100110.47
2022-09-12T00:49:26.088Z,100110.19
2022-09-12T00:52:03.640Z,100117.41
2022-09-12T00:54:36.314Z,100104.72
2022-09-12T00:57:08.057Z,100115.88
2022-09-12T00:59:41.555Z,100096.84
2022-09-12T01:02:09.022Z,100102.31
2022-09-12T01:04:38.760Z,100105.97
2022-09-12T01:07:08.087Z,100113.34
2022-09-12T01:09:37.389Z,100115.88
2022-09-12T01:12:06.106Z,100108.56
2022-09-12T01:14:33.357Z,100106.75
2022-09-12T01:17:00.600Z,100106.03
2022-09-12T01:20:19.443Z,100105.19
2022-09-12T01:23:06.017Z,100114.13
2022-09-12T01:25:59.406Z,100115.38
2022-09-12T01:28:55.509Z,100102.38
2022-09-12T01:31:33.648Z,100115.09
2022-09-12T01:34:15.821Z,100112.25
2022-09-12T01:37:14.505Z,100107.47
2022-09-12T01:39:41.708Z,100103.25
2022-09-12T01:42:23.976Z,100103.38
2022-09-12T01:45:18.597Z,100111.84
2022-09-12T01:47:50.267Z,100117.47
2022-09-12T01:50:21.762Z,100113.53
2022-09-12T01:52:58.865Z,100115.66
2022-09-12T01:55:32.644Z,100117.34
2022-09-12T01:58:12.656Z,100114.50
2022-09-12T02:00:48.703Z,100114.25
2022-09-12T02:03:20.752Z,100115.38
2022-09-12T02:05:50.937Z,100113.69
2022-09-12T02:08:26.062Z,100119.88
2022-09-12T02:11:01.358Z,100118.50
2022-09-12T02:13:28.653Z,100117.78
2022-09-12T02:16:03.704Z,100113.41
2022-09-12T02:18:34.161Z,100117.91
2022-09-12T02:21:03.777Z,100111.66
2022-09-12T02:23:32.710Z,100117.78
2022-09-12T02:26:18.768Z,100106.16
2022-09-12T02:28:46.243Z,100105.19
2022-09-12T02:31:35.491Z,100117.34
2022-09-12T02:34:05.462Z,100126.06
2022-09-12T02:36:59.441Z,100127.78
2022-09-12T02:39:26.846Z,100127.75
2022-09-12T02:42:01.047Z,100119.00
2022-09-12T02:44:30.524Z,100117.16
2022-09-12T02:47:05.660Z,100117.47
2022-09-12T02:49:33.002Z,100122.56
2022-09-12T02:52:02.329Z,100119.59
2022-09-12T02:54:31.143Z,100113.97
2022-09-12T02:56:58.284Z,100123.72
2022-09-12T02:59:26.562Z,100117.66
2022-09-12T03:02:12.743Z,100122.88
2022-09-12T03:04:52.444Z,100123.72
2022-09-12T03:07:43.254Z,100118.63
2022-09-12T03:10:18.632Z,100131.06
2022-09-12T03:13:15.100Z,100128.50
2022-09-12T03:15:57.736Z,100129.59
2022-09-12T03:18:51.797Z,100125.66
2022-09-12T03:21:23.256Z,100133.13
2022-09-12T03:24:13.564Z,100134.94
2022-09-12T03:26:54.539Z,100141.56
2022-09-12T03:29:24.804Z,100130.56
2022-09-12T03:31:55.400Z,100133.78
2022-09-12T03:34:24.211Z,100144.13
2022-09-12T03:36:52.348Z,100150.91
2022-09-12T03:39:20.441Z,100153.00
2022-09-12T03:41:47.820Z,100148.91
2022-09-12T03:44:14.949Z,100151.19
2022-09-12T03:46:42.370Z,100148.13
2022-09-12T03:49:10.832Z,100150.09
2022-09-12T03:51:39.364Z,100145.03
2022-09-12T03:54:07.032Z,100154.91
2022-09-12T03:56:35.349Z,100149.53
2022-09-12T03:59:05.562Z,100146.72
2022-09-12T04:01:33.104Z,100144.19
2022-09-12T04:04:00.360Z,100145.88
2022-09-12T04:06:27.664Z,100160.56
2022-09-12T04:08:55.440Z,100156.44
2022-09-12T04:11:23.347Z,100159.94
2022-09-12T04:13:50.968Z,100149.94
2022-09-12T04:16:19.038Z,100163.78
2022-09-12T04:18:47.089Z,100151.38
2022-09-12T04:21:18.016Z,100149.41
2022-09-12T04:23:45.909Z,100154.59
2022-09-12T04:26:14.214Z,100164.91
2022-09-12T04:28:42.086Z,100159.72
2022-09-12T04:31:13.462Z,100154.34
2022-09-12T04:33:40.612Z,100163.97
2022-09-12T04:36:10.646Z,100171.44
2022-09-12T04:38:39.105Z,100176.28
2022-09-12T04:41:13.401Z,100179.38
2022-09-12T04:43:42.520Z,100173.97
2022-09-12T04:46:12.279Z,100176.25
2022-09-12T04:48:39.734Z,100172.28
2022-09-12T04:51:13.718Z,100171.66
2022-09-12T04:53:42.471Z,100184.81
2022-09-12T04:56:11.743Z,100183.91
2022-09-12T04:58:39.098Z,100164.41
2022-09-12T05:01:10.803Z,100183.03
2022-09-12T05:03:39.667Z,100180.88
2022-09-12T05:06:08.753Z,100162.03
2022-09-12T05:08:36.266Z,100190.59
2022-09-12T05:11:10.551Z,100186.63
2022-09-12T05:13:38.961Z,100190.09
2022-09-12T05:16:07.905Z,100186.81
2022-09-12T05:18:36.524Z,100189.78
2022-09-12T05:21:07.002Z,100200.34
2022-09-12T05:23:34.298Z,100191.81
2022-09-12T05:26:03.151Z,100192.75
2022-09-12T05:28:36.236Z,100191.28
2022-09-12T05:31:15.619Z,100181.97
2022-09-12T05:33:46.252Z,100193.69
2022-09-12T05:36:22.646Z,100200.53
2022-09-12T05:38:50.486Z,100197.59
2022-09-12T05:41:24.978Z,100190.41
2022-09-12T05:43:58.007Z,100198.47
2022-09-12T05:46:27.703Z,100203.06
2022-09-12T05:48:56.689Z,100194.47
2022-09-12T05:51:26.772Z,100202.34
2022-09-12T05:53:57.078Z,100217.97
2022-09-12T05:56:30.254Z,100224.41
2022-09-12T05:59:02.666Z,100224.25
2022-09-12T06:01:31.625Z,100235.44
2022-09-12T06:04:01.191Z,100231.00
2022-09-12T06:06:29.933Z,100236.22
2022-09-12T06:09:00.328Z,100236.78
2022-09-12T06:11:30.214Z,100225.00
2022-09-12T06:13:59.058Z,100234.22
2022-09-12T06:16:29.025Z,100238.34
2022-09-12T06:19:01.735Z,100240.81
2022-09-12T06:21:31.404Z,100232.09
2022-09-12T06:23:59.227Z,100231.78
2022-09-12T06:26:28.064Z,100238.16
2022-09-12T06:28:57.528Z,100232.09
2022-09-12T06:31:30.732Z,100236.91
2022-09-12T06:34:01.057Z,100246.56
2022-09-12T06:36:31.497Z,100241.09
2022-09-12T06:39:01.659Z,100241.50
2022-09-12T06:41:31.327Z,100248.63
2022-09-12T06:43:59.677Z,100242.06
2022-09-12T06:46:27.920Z,100249.56
2022-09-12T06:49:00.664Z,100248.53
2022-09-12T06:51:28.846Z,100251.53
2022-09-12T06:53:57.312Z,100252.63
2022-09-12T06:56:27.193Z,100249.22
2022-09-12T06:58:59.343Z,100238.84
2022-09-12T07:01:29.222Z,100247.63
2022-09-12T07:04:01.952Z,100255.97
2022-09-12T07:06:35.154Z,100250.00
2022-09-12T07:09:04.474Z,100250.72
2022-09-12T07:11:34.668Z,100239.66
2022-09-12T07:14:03.619Z,100253.16
2022-09-12T07:16:32.736Z,100264.16
2022-09-12T07:19:02.227Z,100263.66
2022-09-12T07:21:30.048Z,100248.44
2022-09-12T07:24:00.604Z,100266.41
2022-09-12T07:26:29.002Z,100259.06
2022-09-12T07:29:08.275Z,100254.75
2022-09-12T07:31:45.559Z,100260.28
2022-09-12T07:34:14.006Z,100259.72
2022-09-12T07:36:41.170Z,100253.41
2022-09-12T07:39:08.627Z,100265.84
2022-09-12T07:41:35.834Z,100261.53
2022-09-12T07:44:03.593Z,100254.91
2022-09-12T07:46:31.555Z,100263.59
2022-09-12T07:49:01.305Z,100257.34
2022-09-12T07:51:30.462Z,100258.34
2022-09-12T07:53:58.491Z,100261.56
2022-09-12T07:56:32.769Z,100266.31
2022-09-12T07:59:02.082Z,100277.50
2022-09-12T08:01:29.874Z,100282.19
2022-09-12T08:03:59.462Z,100281.41
2022-09-12T08:06:30.363Z,100269.81
2022-09-12T08:08:59.037Z,100267.50
2022-09-12T08:11:28.974Z,100271.66
2022-09-12T08:13:58.058Z,100273.09
2022-09-12T08:16:27.911Z,100281.47
2022-09-12T08:18:55.616Z,100281.91
2022-09-12T08:21:25.538Z,100268.66
2022-09-12T08:23:54.690Z,100274.59
2022-09-12T08:26:22.264Z,100279.53
2022-09-12T08:28:49.649Z,100281.06
2022-09-12T08:31:20.227Z,100274.97
2022-09-12T08:33:47.942Z,100276.09
2022-09-12T08:36:18.194Z,100280.16
2022-09-12T08:38:47.516Z,100276.06
2022-09-12T08:41:38.723Z,100285.78
2022-09-12T08:45:00.212Z,100275.72
2022-09-12T08:47:41.894Z,100269.53
2022-09-12T08:50:11.946Z,100270.44
2022-09-12T08:53:26.760Z,100278.47
2022-09-12T08:55:58.811Z,100277.28
2022-09-12T08:58:29.127Z,100269.22
2022-09-12T09:01:02.223Z,100280.31
2022-09-12T09:03:35.457Z,100279.41
2022-09-12T09:06:09.002Z,100286.94
2022-09-12T09:08:48.021Z,100271.25
2022-09-12T09:12:06.840Z,100275.41
2022-09-12T09:14:49.228Z,100279.72
2022-09-12T09:17:31.810Z,100280.31
2022-09-12T09:20:22.946Z,100294.84
2022-09-12T09:22:54.708Z,100281.84
2022-09-12T09:25:28.340Z,100276.72
2022-09-12T09:28:11.590Z,100276.38
2022-09-12T09:30:42.402Z,100291.97
2022-09-12T09:33:20.524Z,100285.19
2022-09-12T09:35:56.723Z,100291.84
2022-09-12T09:38:46.375Z,100279.81
2022-09-12T09:41:36.254Z,100287.09
2022-09-12T09:44:04.561Z,100282.28
2022-09-12T09:46:32.473Z,100269.94
2022-09-12T09:49:03.390Z,100290.53
2022-09-12T09:51:39.910Z,100280.06
2022-09-12T09:54:23.654Z,100280.88
2022-09-12T09:56:51.252Z,100280.03
2022-09-12T09:59:31.132Z,100281.84
2022-09-12T10:02:23.255Z,100284.13
2022-09-12T10:04:57.690Z,100275.50
2022-09-12T10:07:26.688Z,100282.97
2022-09-12T10:10:16.712Z,100289.59
2022-09-12T10:12:44.496Z,100281.44
2022-09-12T10:15:29.549Z,100291.56
2022-09-12T10:17:57.175Z,100289.38
2022-09-12T10:20:36.557Z,100282.69
2022-09-12T10:23:33.826Z,100286.38
2022-09-12T10:26:05.214Z,100281.13
2022-09-12T10:28:35.987Z,100293.56
2022-09-12T10:31:04.375Z,100285.19
2022-09-12T10:33:40.434Z,100282.97
2022-09-12T10:36:07.989Z,100278.19
2022-09-12T10:38:35.150Z,100284.03
2022-09-12T10:41:11.449Z,100273.13
2022-09-12T10:43:41.477Z,100283.44
2022-09-12T10:46:14.737Z,100276.50
2022-09-12T10:48:44.041Z,100267.22
2022-09-12T10:51:28.908Z,100271.16
2022-09-12T10:54:02.241Z,100285.88
2022-09-12T10:56:34.981Z,100284.44
2022-09-12T10:59:24.439Z,100282.53
2022-09-12T11:02:27.396Z,100284.44
2022-09-12T11:05:11.743Z,100284.31
2022-09-12T11:07:53.348Z,100284.16
2022-09-12T11:10:47.685Z,100288.13
2022-09-12T11:13:52.327Z,100286.13
2022-09-12T11:16:49.063Z,100273.88
2022-09-12T11:19:53.637Z,100284.53
2022-09-12T11:22:32.065Z,100295.28
2022-09-12T11:25:28.246Z,100284.97
2022-09-12T11:28:26.017Z,100285.94
2022-09-12T11:31:11.610Z,100275.50
2022-09-12T11:33:46.896Z,100285.44
2022-09-12T11:36:41.614Z,100275.69
2022-09-12T11:39:16.520Z,100297.34
2022-09-12T11:41:48.425Z,100296.13
2022-09-12T11:44:50.463Z,100292.88
2022-09-12T11:47:18.767Z,100289.03
2022-09-12T11:49:53.081Z,100297.94
2022-09-12T11:52:23.925Z,100300.38
2022-09-12T11:54:57.920Z,100291.63
2022-09-12T11:57:25.057Z,100298.88
2022-09-12T12:00:15.258Z,100295.19
2022-09-12T12:03:04.874Z,100301.28
2022-09-12T12:05:41.184Z,100292.91
2022-09-12T12:08:09.384Z,100301.97
2022-09-12T12:10:50.019Z,100294.38
2022-09-12T12:13:32.218Z,100299.97
2022-09-12T12:16:04.980Z,100302.59
2022-09-12T12:18:34.361Z,100297.25
2022-09-12T12:21:35.083Z,100305.81
2022-09-12T12:24:08.232Z,100314.88
2022-09-12T12:26:38.873Z,100304.81
2022-09-12T12:29:18.501Z,100304.06
2022-09-12T12:32:20.345Z,100311.38
2022-09-12T12:34:48.222Z,100304.59
2022-09-12T12:37:23.027Z,100312.81
2022-09-12T12:40:01.174Z,100310.78
2022-09-12T12:42:35.506Z,100308.72
2022-09-12T12:45:09.584Z,100300.88
2022-09-12T12:47:43.181Z,100307.41
2022-09-12T12:50:10.350Z,100318.38
2022-09-12T12:52:46.464Z,100294.44
2022-09-12T12:55:35.404Z,100294.50
2022-09-12T12:58:05.850Z,100292.56
2022-09-12T13:00:40.472Z,100295.47
2022-09-12T13:03:07.548Z,100305.97
2022-09-12T13:05:48.646Z,100299.31
2022-09-12T13:08:18.885Z,100307.75
2022-09-12T13:10:57.029Z,100304.66
2022-09-12T13:13:32.184Z,100301.06
2022-09-12T13:15:59.828Z,100300.66
2022-09-12T13:18:32.845Z,100294.09
2022-09-12T13:21:11.904Z,100299.91
2022-09-12T13:23:39.526Z,100299.56
2022-09-12T13:26:25.695Z,100304.19
2022-09-12T13:29:19.589Z,100293.88
2022-09-12T13:31:52.875Z,100290.63
2022-09-12T13:34:27.067Z,100282.19
2022-09-12T13:37:07.606Z,100292.25
2022-09-12T13:40:08.780Z,100279.19
2022-09-12T13:42:45.190Z,100286.41
2022-09-12T13:45:22.800Z,100288.78
2022-09-12T13:48:25.341Z,100292.03
2022-09-12T13:50:59.975Z,100295.34
2022-09-12T13:53:31.993Z,100298.53
2022-09-12T13:56:00.158Z,100288.78
2022-09-12T13:58:30.486Z,100287.75
2022-09-12T14:01:04.691Z,100281.38
2022-09-12T14:03:58.979Z,100281.19
2022-09-12T14:06:27.826Z,100296.28
2022-09-12T14:09:01.593Z,100286.19
2022-09-12T14:11:33.899Z,100278.72
2022-09-12T14:14:06.612Z,100280.41
2022-09-12T14:16:40.097Z,100296.19
2022-09-12T14:19:10.352Z,100291.97
2022-09-12T14:21:38.564Z,100290.00
2022-09-12T14:24:08.660Z,100284.25
2022-09-12T14:26:38.626Z,100298.28
2022-09-12T14:29:07.715Z,100292.03
2022-09-12T14:31:38.139Z,100297.28
2022-09-12T14:34:09.757Z,100288.19
2022-09-12T14:36:41.951Z,100291.91
2022-09-12T14:39:38.028Z,100282.19
2022-09-12T14:42:18.469Z,100287.56
2022-09-12T14:45:14.242Z,100287.97
2022-09-12T14:47:44.506Z,100283.19
2022-09-12T14:50:17.857Z,100287.47
2022-09-12T14:52:45.413Z,100285.19
2022-09-12T14:55:16.228Z,100299.59
2022-09-12T14:57:44.636Z,100289.59
2022-09-12T15:00:12.039Z,100286.53
2022-09-12T15:02:44.528Z,100287.06
2022-09-12T15:05:11.684Z,100293.16
2022-09-12T15:07:54.480Z,100284.69
2022-09-12T15:10:48.367Z,100287.06
2022-09-12T15:13:19.707Z,100289.94
2022-09-12T15:15:49.336Z,100296.84
2022-09-12T15:18:18.808Z,100305.28
2022-09-12T15:20:50.288Z,100298.56
2022-09-12T15:23:17.502Z,100297.91
2022-09-12T15:25:44.648Z,100286.97
2022-09-12T15:28:20.817Z,100292.22
2022-09-12T15:30:50.612Z,100280.91
2022-09-12T15:33:19.632Z,100295.75
2022-09-12T15:35:47.171Z,100280.41
2022-09-12T15:38:14.696Z,100280.19
2022-09-12T15:40:42.402Z,100288.97
2022-09-12T15:43:13.380Z,100284.75
2022-09-12T15:45:43.672Z,100280.91
2022-09-12T15:48:10.910Z,100291.25
2022-09-12T15:50:38.021Z,100299.22
2022-09-12T15:53:05.371Z,100300.38
2022-09-12T15:55:33.033Z,100297.69
2022-09-12T15:58:04.872Z,100290.59
2022-09-12T16:00:35.660Z,100295.38
2022-09-12T16:03:02.921Z,100295.38
2022-09-12T16:05:30.160Z,100296.00
2022-09-12T16:07:57.801Z,100296.91
2022-09-12T16:10:29.007Z,100287.25
2022-09-12T16:12:56.484Z,100290.66
2022-09-12T16:15:25.230Z,100295.38
2022-09-12T16:17:53.080Z,100286.25
2022-09-12T16:20:22.270Z,100285.09
2022-09-12T16:22:49.749Z,100284.81
2022-09-12T16:25:17.500Z,100287.03
2022-09-12T16:27:44.892Z,100282.59
2022-09-12T16:30:13.228Z,100293.44
2022-09-12T16:32:40.607Z,100288.06
2022-09-12T16:35:08.927Z,100281.97
2022-09-12T16:37:36.589Z,100286.69
2022-09-12T16:40:05.320Z,100289.19
2022-09-12T16:42:32.967Z,100276.47
2022-09-12T16:45:00.331Z,100284.91
2022-09-12T16:47:27.512Z,100276.78
2022-09-12T16:49:54.829Z,100275.41
2022-09-12T16:52:22.333Z,100270.94
2022-09-12T16:54:49.474Z,100268.94
2022-09-12T16:57:16.709Z,100257.41
2022-09-12T16:59:44.630Z,100271.72
2022-09-12T17:02:13.994Z,100263.06
2022-09-12T17:04:41.579Z,100262.97
2022-09-12T17:07:09.556Z,100276.75
2022-09-12T17:09:36.856Z,100276.31
2022-09-12T17:12:04.507Z,100270.50
2022-09-12T17:14:31.975Z,100261.50
2022-09-12T17:16:59.148Z,100261.03
2022-09-12T17:19:29.744Z,100267.75
2022-09-12T17:21:57.891Z,100264.81
2022-09-12T17:24:25.923Z,100269.13
2022-09-12T17:26:53.937Z,100263.91
2022-09-12T17:29:21.378Z,100268.06
2022-09-12T17:31:49.460Z,100263.72
2022-09-12T17:34:17.811Z,100265.97
2022-09-12T17:36:46.777Z,100272.28
2022-09-12T17:39:15.468Z,100273.28
2022-09-12T17:41:43.470Z,100277.13
2022-09-12T17:44:15.525Z,100259.94
2022-09-12T17:46:44.407Z,100271.56
2022-09-12T17:49:15.144Z,100265.44
2022-09-12T17:51:44.278Z,100269.00
2022-09-12T17:54:16.392Z,100268.47
2022-09-12T17:56:46.026Z,100274.25
2022-09-12T17:59:19.281Z,100282.72
2022-09-12T18:02:22.336Z,100280.19
2022-09-12T18:04:50.780Z,100269.78
2022-09-12T18:07:19.995Z,100274.59
2022-09-12T18:09:48.129Z,100267.50
2022-09-12T18:12:16.260Z,100277.28
2022-09-12T18:14:44.159Z,100275.50
2022-09-12T18:17:11.633Z,100273.66
2022-09-12T18:19:38.836Z,100281.34
2022-09-12T18:22:06.979Z,100277.97
2022-09-12T18:24:34.266Z,100273.13
2022-09-12T18:27:03.923Z,100271.41
2022-09-12T18:29:31.518Z,100273.72
2022-09-12T18:31:59.685Z,100268.25
2022-09-12T18:34:27.297Z,100267.94
2022-09-12T18:36:55.252Z,100266.84
2022-09-12T18:39:27.429Z,100264.47
2022-09-12T18:41:55.376Z,100268.06
2022-09-12T18:44:22.965Z,100268.50
2022-09-12T18:46:50.640Z,100254.50
2022-09-12T18:49:18.544Z,100266.81
2022-09-12T18:51:46.074Z,100254.50
2022-09-12T18:54:15.680Z,100267.34
2022-09-12T18:56:44.097Z,100263.97
2022-09-12T18:59:14.199Z,100255.81
2022-09-12T19:01:43.035Z,100265.47
2022-09-12T19:04:11.977Z,100262.09
2022-09-12T19:06:42.145Z,100268.31
2022-09-12T19:09:11.622Z,100268.88
2022-09-12T19:11:42.462Z,100265.63
2022-09-12T19:14:09.877Z,100268.09
2022-09-12T19:16:37.401Z,100256.34
2022-09-12T19:19:04.909Z,100261.38
2022-09-12T19:21:33.604Z,100262.69
2022-09-12T19:24:03.980Z,100251.53
2022-09-12T19:26:32.116Z,100250.09
2022-09-12T19:29:01.054Z,100243.03
2022-09-12T19:31:28.830Z,100242.75
2022-09-12T19:34:04.724Z,100234.47
2022-09-12T19:36:47.765Z,100232.09
2022-09-12T19:39:17.102Z,100232.84
2022-09-12T19:41:45.134Z,100234.84
2022-09-12T19:44:12.555Z,100227.09
2022-09-12T19:46:40.573Z,100229.69
2022-09-12T19:49:07.930Z,100226.84
2022-09-12T19:51:35.218Z,100233.69
2022-09-12T19:54:03.099Z,100227.56
2022-09-12T19:56:30.386Z,100218.63
2022-09-12T19:58:57.693Z,100212.31
2022-09-12T20:01:30.180Z,100223.84
2022-09-12T20:03:58.282Z,100226.63
2022-09-12T20:06:26.319Z,100229.38
2022-09-12T20:08:54.259Z,100225.50
2022-09-12T20:11:23.740Z,100227.97
2022-09-12T20:13:51.541Z,100226.03
2022-09-12T20:16:25.530Z,100208.94
2022-09-12T20:18:55.305Z,100212.88
2022-09-12T20:21:31.418Z,100214.19
2022-09-12T20:24:05.359Z,100207.69
2022-09-12T20:26:33.463Z,100210.81
2022-09-12T20:29:00.856Z,100199.69
2022-09-12T20:31:28.840Z,100202.25
2022-09-12T20:33:56.306Z,100196.19
2022-09-12T20:36:23.900Z,100195.19
2022-09-12T20:38:53.294Z,100195.41
2022-09-12T20:41:21.494Z,100195.41
2022-09-12T20:43:53.158Z,100193.81
2022-09-12T20:46:24.710Z,100194.91
2022-09-12T20:48:52.650Z,100189.06
2022-09-12T20:51:21.690Z,100197.28
2022-09-12T20:53:53.392Z,100198.94
2022-09-12T20:56:21.461Z,100201.06
2022-09-12T20:58:48.795Z,100187.13
2022-09-12T21:01:16.856Z,100196.72
2022-09-12T21:03:44.849Z,100202.53
2022-09-12T21:06:13.808Z,100190.34
2022-09-12T21:08:41.074Z,100192.81
2022-09-12T21:11:08.911Z,100194.81
2022-09-12T21:13:37.362Z,100191.13
2022-09-12T21:16:07.261Z,100188.38
2022-09-12T21:18:35.546Z,100178.94
2022-09-12T21:21:03.900Z,100179.97
2022-09-12T21:23:32.274Z,100177.72
2022-09-12T21:26:01.448Z,100177.28
2022-09-12T21:28:28.904Z,100174.19
2022-09-12T21:30:56.251Z,100179.44
2022-09-12T21:33:23.967Z,100170.91
2022-09-12T21:35:51.313Z,100160.91
2022-09-12T21:38:19.969Z,100174.59
2022-09-12T21:40:47.768Z,100168.69
2022-09-12T21:43:15.526Z,100163.50
2022-09-12T21:45:42.679Z,100164.19
2022-09-12T21:48:10.026Z,100148.13
2022-09-12T21:50:37.183Z,100146.97
2022-09-12T21:53:04.346Z,100143.00
2022-09-12T21:55:31.840Z,100151.59
2022-09-12T21:57:59.188Z,100143.16
2022-09-12T22:00:26.500Z,100139.06
2022-09-12T22:02:53.886Z,100140.91
2022-09-12T22:05:22.358Z,100149.22
2022-09-12T22:07:49.564Z,100145.28
2022-09-12T22:10:17.066Z,100141.88
2022-09-12T22:12:46.457Z,100149.47
2022-09-12T22:18:02.017Z,100145.22
2022-09-12T22:20:29.178Z,100152.09
2022-09-12T22:23:14.964Z,100155.53
2022-09-12T22:25:42.436Z,100145.81
2022-09-12T22:28:09.870Z,100135.66
2022-09-12T22:30:37.613Z,100153.19
2022-09-12T22:33:04.958Z,100140.75
2022-09-12T22:35:32.122Z,100136.25
2022-09-12T22:37:59.484Z,100146.03
2022-09-12T22:40:26.702Z,100145.47
2022-09-12T22:42:55.133Z,100151.25
2022-09-12T22:45:22.275Z,100146.88
2022-09-12T22:47:49.602Z,100149.97
2022-09-12T22:50:16.834Z,100140.94
2022-09-12T22:52:44.494Z,100127.81
2022-09-12T22:55:11.735Z,100130.47
2022-09-12T22:57:39.914Z,100134.88
2022-09-12T23:00:10.757Z,100128.78
2022-09-12T23:02:38.238Z,100126.09
2022-09-12T23:05:06.206Z,100120.59
2022-09-12T23:07:33.737Z,100119.75
2022-09-12T23:10:01.128Z,100113.13
2022-09-12T23:12:28.568Z,100119.59
2022-09-12T23:14:55.703Z,100119.59
2022-09-12T23:17:23.082Z,100104.06
2022-09-12T23:19:50.216Z,100108.59
2022-09-12T23:22:17.506Z,100110.88
2022-09-12T23:24:44.935Z,100111.44
2022-09-12T23:27:12.092Z,100114.94
2022-09-12T23:29:39.270Z,100096.31
2022-09-12T23:32:06.863Z,100109.59
2022-09-12T23:34:34.272Z,100102.38
2022-09-12T23:37:01.505Z,100095.75
2022-09-12T23:39:28.989Z,100098.56
2022-09-12T23:41:56.129Z,100094.63
2022-09-12T23:44:23.279Z,100090.09
2022-09-12T23:46:50.715Z,100100.97
2022-09-12T23:49:17.919Z,100089.66
2022-09-12T23:51:45.069Z,100071.59
2022-09-12T23:54:12.408Z,100087.69
2022-09-12T23:56:39.699Z,100070.19
2022-09-12T23:59:06.819Z,100081.47
